aviador You're here:

LFPM Decoded Metar

MELUN in FRANCE
Report Time2017-08-18 14:00:00
UTC Time2017-08-18 14:28:06
Flight Rules vfr VFR
Wind230° at 10 kt
W.Decomp.*RWY 19: 7.7 kt HW 6.4 kt RCW
RWY 28: 6.4 kt HW 7.7 kt LCW
W.Rank230° ranks 4
Current wind is above 230° avg. (9.4)
Visibility9999 m
Phenomena:N/A
Clouds:Few 010 Hf
Scattered 068 Hf
Overcast 096 Hf
Expected CloudBase > 400 ft AGL from Temp-Dew spread
Ceiling9,600 ft
Temp20°C (ISA +6)
Dew Point19°C (94% RH)
AAT19.6°C
QNH1015 hPa
Density Alt1,181 ft
Elevation302 ft
Report Wrong Elevation
Raw Report
METAR LFPM 181400Z AUTO 23010KT 9999 FEW010 SCT068 OVC096 20/19 Q1015=

Extra information for LFPM:More info

Metar Taf Metar & Taf Last 4 Metars F.Rules Stats Wind Profile Meteogram Temp Stats Airport Information Weather charts Add Link Nearby VenuesMetar ALERT Operation Metar Decoded Social comments